sensor_id;sensor_type;location;lat;lon;timestamp;pressure;altitude;pressure_sealevel;temperature;humidity
59787;BME280;45672;51.612;5.536;2024-01-15T00:02:17;100171.41;;;0.97;100.00
59787;BME280;45672;51.612;5.536;2024-01-15T00:04:42;100172.56;;;0.93;100.00
59787;BME280;45672;51.612;5.536;2024-01-15T00:07:08;100160.28;;;0.93;100.00
59787;BME280;45672;51.612;5.536;2024-01-15T00:09:34;100162.06;;;0.93;100.00
59787;BME280;45672;51.612;5.536;2024-01-15T00:12:00;100157.78;;;0.92;100.00
59787;BME280;45672;51.612;5.536;2024-01-15T00:14:26;100149.75;;;0.82;100.00
59787;BME280;45672;51.612;5.536;2024-01-15T00:16:52;100148.41;;;0.76;100.00
59787;BME280;45672;51.612;5.536;2024-01-15T00:19:21;100149.22;;;0.77;100.00
59787;BME280;45672;51.612;5.536;2024-01-15T00:21:47;100136.28;;;0.62;100.00
59787;BME280;45672;51.612;5.536;2024-01-15T00:24:13;100140.56;;;0.63;100.00
59787;BME280;45672;51.612;5.536;2024-01-15T00:26:38;100139.00;;;0.61;100.00
59787;BME280;45672;51.612;5.536;2024-01-15T00:29:04;100139.97;;;0.60;100.00
59787;BME280;45672;51.612;5.536;2024-01-15T00:31:29;100141.84;;;0.58;100.00
59787;BME280;45672;51.612;5.536;2024-01-15T00:33:55;100146.16;;;0.59;100.00
59787;BME280;45672;51.612;5.536;2024-01-15T00:36:21;100133.06;;;0.59;100.00
59787;BME280;45672;51.612;5.536;2024-01-15T00:38:46;100122.06;;;0.54;100.00
59787;BME280;45672;51.612;5.536;2024-01-15T00:41:12;100123.75;;;0.55;100.00
59787;BME280;45672;51.612;5.536;2024-01-15T00:43:38;100117.28;;;0.47;100.00
59787;BME280;45672;51.612;5.536;2024-01-15T00:46:03;100126.06;;;0.46;100.00
59787;BME280;45672;51.612;5.536;2024-01-15T00:48:28;100111.72;;;0.39;100.00
59787;BME280;45672;51.612;5.536;2024-01-15T00:50:54;100115.28;;;0.38;100.00
59787;BME280;45672;51.612;5.536;2024-01-15T00:53:19;100115.38;;;0.37;100.00
59787;BME280;45672;51.612;5.536;2024-01-15T00:55:47;100116.66;;;0.31;100.00
59787;BME280;45672;51.612;5.536;2024-01-15T00:58:12;100118.56;;;0.29;100.00
59787;BME280;45672;51.612;5.536;2024-01-15T01:00:38;100103.91;;;0.26;100.00
59787;BME280;45672;51.612;5.536;2024-01-15T01:03:03;100110.06;;;0.25;100.00
59787;BME280;45672;51.612;5.536;2024-01-15T01:05:28;100105.16;;;0.21;100.00
59787;BME280;45672;51.612;5.536;2024-01-15T01:07:54;100114.91;;;0.19;100.00
59787;BME280;45672;51.612;5.536;2024-01-15T01:10:19;100108.22;;;0.14;100.00
59787;BME280;45672;51.612;5.536;2024-01-15T01:12:44;100104.03;;;0.12;100.00
59787;BME280;45672;51.612;5.536;2024-01-15T01:15:10;100108.50;;;0.10;100.00
59787;BME280;45672;51.612;5.536;2024-01-15T01:17:35;100108.50;;;0.10;100.00
59787;BME280;45672;51.612;5.536;2024-01-15T01:20:01;100102.47;;;0.09;100.00
59787;BME280;45672;51.612;5.536;2024-01-15T01:22:29;100094.94;;;0.05;100.00
59787;BME280;45672;51.612;5.536;2024-01-15T01:24:54;100104.44;;;0.06;100.00
59787;BME280;45672;51.612;5.536;2024-01-15T01:27:20;100100.16;;;0.05;100.00
59787;BME280;45672;51.612;5.536;2024-01-15T01:29:45;100097.66;;;0.03;100.00
59787;BME280;45672;51.612;5.536;2024-01-15T01:32:10;100099.53;;;0.01;100.00
59787;BME280;45672;51.612;5.536;2024-01-15T01:34:40;100101.44;;;-0.01;100.00
59787;BME280;45672;51.612;5.536;2024-01-15T01:37:07;100103.28;;;-0.03;100.00
59787;BME280;45672;51.612;5.536;2024-01-15T01:39:32;100105.91;;;-0.03;100.00
59787;BME280;45672;51.612;5.536;2024-01-15T01:41:58;100109.47;;;-0.04;100.00
59787;BME280;45672;51.612;5.536;2024-01-15T01:44:23;100104.38;;;-0.06;100.00
59787;BME280;45672;51.612;5.536;2024-01-15T01:46:48;100112.28;;;-0.07;100.00
59787;BME280;45672;51.612;5.536;2024-01-15T01:49:14;100109.78;;;-0.09;100.00
59787;BME280;45672;51.612;5.536;2024-01-15T01:51:39;100105.81;;;-0.14;100.00
59787;BME280;45672;51.612;5.536;2024-01-15T01:54:05;100112.72;;;-0.13;100.00
59787;BME280;45672;51.612;5.536;2024-01-15T01:56:33;100112.81;;;-0.15;100.00
59787;BME280;45672;51.612;5.536;2024-01-15T01:58:59;100109.38;;;-0.15;100.00
59787;BME280;45672;51.612;5.536;2024-01-15T02:01:24;100108.53;;;-0.16;100.00
59787;BME280;45672;51.612;5.536;2024-01-15T02:03:50;100111.25;;;-0.18;100.00
59787;BME280;45672;51.612;5.536;2024-01-15T02:06:15;100102.69;;;-0.20;100.00
59787;BME280;45672;51.612;5.536;2024-01-15T02:08:43;100107.69;;;-0.16;100.00
59787;BME280;45672;51.612;5.536;2024-01-15T02:11:08;100107.69;;;-0.16;100.00
59787;BME280;45672;51.612;5.536;2024-01-15T02:13:33;100108.63;;;-0.18;100.00
59787;BME280;45672;51.612;5.536;2024-01-15T02:15:59;100105.19;;;-0.18;100.00
59787;BME280;45672;51.612;5.536;2024-01-15T02:18:24;100100.06;;;-0.20;100.00
59787;BME280;45672;51.612;5.536;2024-01-15T02:20:49;100088.13;;;-0.24;100.00
59787;BME280;45672;51.612;5.536;2024-01-15T02:23:15;100087.28;;;-0.24;100.00
59787;BME280;45672;51.612;5.536;2024-01-15T02:25:43;100094.19;;;-0.23;100.00
59787;BME280;45672;51.612;5.536;2024-01-15T02:28:10;100096.91;;;-0.25;100.00
59787;BME280;45672;51.612;5.536;2024-01-15T02:30:40;100097.84;;;-0.26;100.00
59787;BME280;45672;51.612;5.536;2024-01-15T02:33:09;100092.72;;;-0.27;100.00
59787;BME280;45672;51.612;5.536;2024-01-15T02:35:35;100097.25;;;-0.29;100.00
59787;BME280;45672;51.612;5.536;2024-01-15T02:38:04;100092.84;;;-0.29;100.00
59787;BME280;45672;51.612;5.536;2024-01-15T02:40:30;100095.56;;;-0.30;100.00
59787;BME280;45672;51.612;5.536;2024-01-15T02:42:55;100085.63;;;-0.38;100.00
59787;BME280;45672;51.612;5.536;2024-01-15T02:45:21;100093.03;;;-0.32;100.00
59787;BME280;45672;51.612;5.536;2024-01-15T02:47:47;100087.91;;;-0.33;100.00
59787;BME280;45672;51.612;5.536;2024-01-15T02:50:12;100090.66;;;-0.35;100.00
59787;BME280;45672;51.612;5.536;2024-01-15T02:52:38;100086.34;;;-0.36;100.00
59787;BME280;45672;51.612;5.536;2024-01-15T02:55:03;100080.69;;;-0.43;100.00
59787;BME280;45672;51.612;5.536;2024-01-15T02:57:29;100096.81;;;-0.36;100.00
59787;BME280;45672;51.612;5.536;2024-01-15T02:59:54;100091.56;;;-0.36;100.00
59787;BME280;45672;51.612;5.536;2024-01-15T03:02:19;100098.47;;;-0.35;100.00
59787;BME280;45672;51.612;5.536;2024-01-15T03:04:45;100095.88;;;-0.35;100.00
59787;BME280;45672;51.612;5.536;2024-01-15T03:07:10;100097.66;;;-0.36;100.00
59787;BME280;45672;51.612;5.536;2024-01-15T03:09:36;100101.00;;;-0.33;100.00
59787;BME280;45672;51.612;5.536;2024-01-15T03:12:01;100091.38;;;-0.33;100.00
59787;BME280;45672;51.612;5.536;2024-01-15T03:14:27;100098.38;;;-0.33;100.00
59787;BME280;45672;51.612;5.536;2024-01-15T03:16:52;100100.16;;;-0.34;100.00
59787;BME280;45672;51.612;5.536;2024-01-15T03:19:18;100088.13;;;-0.37;100.00
59787;BME280;45672;51.612;5.536;2024-01-15T03:21:43;100096.81;;;-0.36;100.00
59787;BME280;45672;51.612;5.536;2024-01-15T03:24:09;100092.72;;;-0.40;100.00
59787;BME280;45672;51.612;5.536;2024-01-15T03:26:34;100081.34;;;-0.39;100.00
59787;BME280;45672;51.612;5.536;2024-01-15T03:28:59;100081.34;;;-0.39;100.00
59787;BME280;45672;51.612;5.536;2024-01-15T03:31:25;100080.78;;;-0.44;100.00
59787;BME280;45672;51.612;5.536;2024-01-15T03:33:50;100082.38;;;-0.42;100.00
59787;BME280;45672;51.612;5.536;2024-01-15T03:36:15;100078.94;;;-0.42;100.00
59787;BME280;45672;51.612;5.536;2024-01-15T03:38:41;100069.19;;;-0.40;100.00
59787;BME280;45672;51.612;5.536;2024-01-15T03:41:07;100066.06;;;-0.45;100.00
59787;BME280;45672;51.612;5.536;2024-01-15T03:43:33;100072.25;;;-0.46;100.00
59787;BME280;45672;51.612;5.536;2024-01-15T03:45:58;100081.44;;;-0.41;100.00
59787;BME280;45672;51.612;5.536;2024-01-15T03:48:23;100072.78;;;-0.41;100.00
59787;BME280;45672;51.612;5.536;2024-01-15T03:50:49;100071.91;;;-0.42;100.00
59787;BME280;45672;51.612;5.536;2024-01-15T03:53:14;100060.84;;;-0.45;100.00
59787;BME280;45672;51.612;5.536;2024-01-15T03:55:39;100067.53;;;-0.41;100.00
59787;BME280;45672;51.612;5.536;2024-01-15T03:58:04;100067.53;;;-0.41;100.00
59787;BME280;45672;51.612;5.536;2024-01-15T04:00:30;100077.16;;;-0.42;100.00
59787;BME280;45672;51.612;5.536;2024-01-15T04:02:55;100075.28;;;-0.40;100.00
59787;BME280;45672;51.612;5.536;2024-01-15T04:05:20;100065.53;;;-0.38;100.00
59787;BME280;45672;51.612;5.536;2024-01-15T04:07:46;100064.41;;;-0.33;100.00
59787;BME280;45672;51.612;5.536;2024-01-15T04:10:11;100048.28;;;-0.27;100.00
59787;BME280;45672;51.612;5.536;2024-01-15T04:12:36;100055.84;;;-0.23;100.00
59787;BME280;45672;51.612;5.536;2024-01-15T04:15:02;100053.00;;;-0.20;100.00
59787;BME280;45672;51.612;5.536;2024-01-15T04:17:27;100034.28;;;-0.26;100.00
59787;BME280;45672;51.612;5.536;2024-01-15T04:19:53;100040.75;;;-0.19;100.00
59787;BME280;45672;51.612;5.536;2024-01-15T04:22:18;100052.47;;;-0.12;100.00
59787;BME280;45672;51.612;5.536;2024-01-15T04:24:43;100043.47;;;-0.08;100.00
59787;BME280;45672;51.612;5.536;2024-01-15T04:27:09;100046.50;;;-0.01;100.00
59787;BME280;45672;51.612;5.536;2024-01-15T04:29:34;100041.16;;;0.01;100.00
59787;BME280;45672;51.612;5.536;2024-01-15T04:31:59;100030.94;;;-0.03;100.00
59787;BME280;45672;51.612;5.536;2024-01-15T04:34:24;100048.34;;;0.10;100.00
59787;BME280;45672;51.612;5.536;2024-01-15T04:36:50;100038.41;;;0.15;100.00
59787;BME280;45672;51.612;5.536;2024-01-15T04:39:15;100036.84;;;0.12;100.00
59787;BME280;45672;51.612;5.536;2024-01-15T04:41:40;100033.19;;;0.15;100.00
59787;BME280;45672;51.612;5.536;2024-01-15T04:44:06;100029.75;;;0.14;100.00
59787;BME280;45672;51.612;5.536;2024-01-15T04:46:31;99992.63;;;-0.04;100.00
59787;BME280;45672;51.612;5.536;2024-01-15T04:48:56;100023.75;;;0.12;100.00
59787;BME280;45672;51.612;5.536;2024-01-15T04:51:22;100021.91;;;0.14;100.00
59787;BME280;45672;51.612;5.536;2024-01-15T04:53:47;100022.84;;;0.13;100.00
59787;BME280;45672;51.612;5.536;2024-01-15T04:56:12;100027.72;;;0.18;100.00
59787;BME280;45672;51.612;5.536;2024-01-15T04:58:37;100018.94;;;0.19;100.00
59787;BME280;45672;51.612;5.536;2024-01-15T05:01:03;100026.56;;;0.22;100.00
59787;BME280;45672;51.612;5.536;2024-01-15T05:03:29;100020.50;;;0.22;100.00
59787;BME280;45672;51.612;5.536;2024-01-15T05:05:54;100022.91;;;0.25;100.00
59787;BME280;45672;51.612;5.536;2024-01-15T05:08:20;100024.69;;;0.24;100.00
59787;BME280;45672;51.612;5.536;2024-01-15T05:10:45;100017.03;;;0.21;100.00
59787;BME280;45672;51.612;5.536;2024-01-15T05:13:11;100032.81;;;0.32;100.00
59787;BME280;45672;51.612;5.536;2024-01-15T05:15:36;100016.50;;;0.29;100.00
59787;BME280;45672;51.612;5.536;2024-01-15T05:18:02;100032.09;;;0.30;100.00
59787;BME280;45672;51.612;5.536;2024-01-15T05:20:27;100025.72;;;0.34;100.00
59787;BME280;45672;51.612;5.536;2024-01-15T05:22:52;100022.03;;;0.37;100.00
59787;BME280;45672;51.612;5.536;2024-01-15T05:25:18;100010.59;;;0.38;100.00
59787;BME280;45672;51.612;5.536;2024-01-15T05:27:43;100013.22;;;0.38;100.00
59787;BME280;45672;51.612;5.536;2024-01-15T05:30:09;100018.47;;;0.38;100.00
59787;BME280;45672;51.612;5.536;2024-01-15T05:32:34;100014.28;;;0.36;100.00
59787;BME280;45672;51.612;5.536;2024-01-15T05:34:59;100010.22;;;0.31;100.00
59787;BME280;45672;51.612;5.536;2024-01-15T05:37:24;100014.59;;;0.31;100.00
59787;BME280;45672;51.612;5.536;2024-01-15T05:39:50;100004.38;;;0.28;100.00
59787;BME280;45672;51.612;5.536;2024-01-15T05:42:15;100008.44;;;0.32;100.00
59787;BME280;45672;51.612;5.536;2024-01-15T05:44:40;100013.69;;;0.32;100.00
59787;BME280;45672;51.612;5.536;2024-01-15T05:47:06;100006.75;;;0.31;100.00
59787;BME280;45672;51.612;5.536;2024-01-15T05:49:31;100013.44;;;0.35;100.00
59787;BME280;45672;51.612;5.536;2024-01-15T05:51:56;100011.34;;;0.40;100.00
59787;BME280;45672;51.612;5.536;2024-01-15T05:54:21;100000.25;;;0.37;100.00
59787;BME280;45672;51.612;5.536;2024-01-15T05:56:47;100002.75;;;0.38;100.00
59787;BME280;45672;51.612;5.536;2024-01-15T05:59:12;99999.44;;;0.36;100.00
59787;BME280;45672;51.612;5.536;2024-01-15T06:01:37;100001.94;;;0.38;100.00
59787;BME280;45672;51.612;5.536;2024-01-15T06:04:03;99994.66;;;0.30;100.00
59787;BME280;45672;51.612;5.536;2024-01-15T06:06:28;100005.94;;;0.30;100.00
59787;BME280;45672;51.612;5.536;2024-01-15T06:08:53;99988.06;;;0.24;100.00
59787;BME280;45672;51.612;5.536;2024-01-15T06:11:19;99995.19;;;0.22;100.00
59787;BME280;45672;51.612;5.536;2024-01-15T06:13:44;99988.38;;;0.20;100.00
59787;BME280;45672;51.612;5.536;2024-01-15T06:16:14;99977.72;;;0.10;100.00
59787;BME280;45672;51.612;5.536;2024-01-15T06:18:40;99982.66;;;0.14;100.00
59787;BME280;45672;51.612;5.536;2024-01-15T06:21:05;99981.91;;;0.12;100.00
59787;BME280;45672;51.612;5.536;2024-01-15T06:23:30;99988.19;;;0.10;100.00
59787;BME280;45672;51.612;5.536;2024-01-15T06:25:56;99980.47;;;0.08;100.00
59787;BME280;45672;51.612;5.536;2024-01-15T06:28:21;99990.09;;;0.08;100.00
59787;BME280;45672;51.612;5.536;2024-01-15T06:30:46;99979.97;;;0.03;100.00
59787;BME280;45672;51.612;5.536;2024-01-15T06:33:12;99982.69;;;0.02;100.00
59787;BME280;45672;51.612;5.536;2024-01-15T06:35:37;99983.00;;;-0.03;100.00
59787;BME280;45672;51.612;5.536;2024-01-15T06:38:02;99980.28;;;-0.14;100.00
59787;BME280;45672;51.612;5.536;2024-01-15T06:40:27;99981.56;;;-0.20;100.00
59787;BME280;45672;51.612;5.536;2024-01-15T06:42:53;99987.88;;;-0.23;100.00
59787;BME280;45672;51.612;5.536;2024-01-15T06:45:18;99985.25;;;-0.23;100.00
59787;BME280;45672;51.612;5.536;2024-01-15T06:47:43;99979.69;;;-0.18;100.00
59787;BME280;45672;51.612;5.536;2024-01-15T06:50:09;99973.59;;;-0.19;100.00
59787;BME280;45672;51.612;5.536;2024-01-15T06:52:34;99979.88;;;-0.08;100.00
59787;BME280;45672;51.612;5.536;2024-01-15T06:54:59;99977.88;;;-0.05;100.00
59787;BME280;45672;51.612;5.536;2024-01-15T06:57:24;99962.75;;;-0.12;100.00
59787;BME280;45672;51.612;5.536;2024-01-15T06:59:50;99984.22;;;0.04;100.00
59787;BME280;45672;51.612;5.536;2024-01-15T07:02:15;99987.38;;;0.09;100.00
59787;BME280;45672;51.612;5.536;2024-01-15T07:04:41;99978.47;;;0.12;100.00
59787;BME280;45672;51.612;5.536;2024-01-15T07:07:06;99981.69;;;0.15;100.00
59787;BME280;45672;51.612;5.536;2024-01-15T07:09:31;99986.72;;;0.19;100.00
59787;BME280;45672;51.612;5.536;2024-01-15T07:11:56;99984.13;;;0.19;100.00
59787;BME280;45672;51.612;5.536;2024-01-15T07:14:23;99981.03;;;0.25;100.00
59787;BME280;45672;51.612;5.536;2024-01-15T07:16:48;99995.06;;;0.24;100.00
59787;BME280;45672;51.612;5.536;2024-01-15T07:19:13;99984.59;;;0.24;100.00
59787;BME280;45672;51.612;5.536;2024-01-15T07:21:39;99976.53;;;0.27;100.00
59787;BME280;45672;51.612;5.536;2024-01-15T07:24:05;99964.59;;;0.23;100.00
59787;BME280;45672;51.612;5.536;2024-01-15T07:26:30;99971.03;;;0.19;100.00
59787;BME280;45672;51.612;5.536;2024-01-15T07:28:56;99978.78;;;0.20;100.00
59787;BME280;45672;51.612;5.536;2024-01-15T07:31:21;99972.19;;;0.14;100.00
59787;BME280;45672;51.612;5.536;2024-01-15T07:33:47;99987.22;;;0.24;100.00
59787;BME280;45672;51.612;5.536;2024-01-15T07:36:12;99991.00;;;0.20;100.00
59787;BME280;45672;51.612;5.536;2024-01-15T07:38:37;99988.78;;;0.26;100.00
59787;BME280;45672;51.612;5.536;2024-01-15T07:41:03;100001.97;;;0.25;100.00
59787;BME280;45672;51.612;5.536;2024-01-15T07:43:29;99996.66;;;0.13;100.00
59787;BME280;45672;51.612;5.536;2024-01-15T07:45:54;99997.38;;;0.15;100.00
59787;BME280;45672;51.612;5.536;2024-01-15T07:48:19;99988.41;;;0.07;100.00
59787;BME280;45672;51.612;5.536;2024-01-15T07:50:45;99999.28;;;0.13;100.00
59787;BME280;45672;51.612;5.536;2024-01-15T07:53:11;99998.25;;;0.16;100.00
59787;BME280;45672;51.612;5.536;2024-01-15T07:55:36;100006.81;;;0.18;100.00
59787;BME280;45672;51.612;5.536;2024-01-15T07:58:01;100012.66;;;0.22;100.00
59787;BME280;45672;51.612;5.536;2024-01-15T08:00:27;100012.34;;;0.26;100.00
59787;BME280;45672;51.612;5.536;2024-01-15T08:02:52;100004.69;;;0.23;100.00
59787;BME280;45672;51.612;5.536;2024-01-15T08:05:18;99999.06;;;0.16;100.00
59787;BME280;45672;51.612;5.536;2024-01-15T08:07:44;100002.44;;;0.19;100.00
59787;BME280;45672;51.612;5.536;2024-01-15T08:10:09;100020.06;;;0.28;100.00
59787;BME280;45672;51.612;5.536;2024-01-15T08:12:34;100025.06;;;0.31;100.00
59787;BME280;45672;51.612;5.536;2024-01-15T08:15:00;100021.75;;;0.29;100.00
59787;BME280;45672;51.612;5.536;2024-01-15T08:17:25;100026.69;;;0.21;100.00
59787;BME280;45672;51.612;5.536;2024-01-15T08:19:54;100023.66;;;0.14;100.00
59787;BME280;45672;51.612;5.536;2024-01-15T08:22:20;100034.31;;;0.24;100.00
59787;BME280;45672;51.612;5.536;2024-01-15T08:24:45;100035.88;;;0.26;100.00
59787;BME280;45672;51.612;5.536;2024-01-15T08:27:11;100027.41;;;0.23;100.00
59787;BME280;45672;51.612;5.536;2024-01-15T08:29:36;100016.22;;;0.21;100.00
59787;BME280;45672;51.612;5.536;2024-01-15T08:32:01;100022.28;;;0.21;100.00
59787;BME280;45672;51.612;5.536;2024-01-15T08:34:27;100017.19;;;0.07;100.00
59787;BME280;45672;51.612;5.536;2024-01-15T08:36:52;100007.88;;;0.03;100.00
59787;BME280;45672;51.612;5.536;2024-01-15T08:39:17;100027.50;;;0.21;100.00
59787;BME280;45672;51.612;5.536;2024-01-15T08:41:44;100029.81;;;0.26;100.00
59787;BME280;45672;51.612;5.536;2024-01-15T08:44:09;100030.53;;;0.28;100.00
59787;BME280;45672;51.612;5.536;2024-01-15T08:46:35;100035.22;;;0.36;100.00
59787;BME280;45672;51.612;5.536;2024-01-15T08:49:00;100036.47;;;0.43;100.00
59787;BME280;45672;51.612;5.536;2024-01-15T08:51:25;100036.03;;;0.49;100.00
59787;BME280;45672;51.612;5.536;2024-01-15T08:53:51;100040.69;;;0.57;100.00
59787;BME280;45672;51.612;5.536;2024-01-15T08:56:16;100045.94;;;0.57;100.00
59787;BME280;45672;51.612;5.536;2024-01-15T08:58:42;100039.63;;;0.59;100.00
59787;BME280;45672;51.612;5.536;2024-01-15T09:01:07;100033.69;;;0.57;100.00
59787;BME280;45672;51.612;5.536;2024-01-15T09:03:32;100040.91;;;0.54;100.00
59787;BME280;45672;51.612;5.536;2024-01-15T09:05:59;100039.22;;;0.52;100.00
59787;BME280;45672;51.612;5.536;2024-01-15T09:08:24;100036.34;;;0.44;100.00
59787;BME280;45672;51.612;5.536;2024-01-15T09:10:50;100049.69;;;0.52;100.00
59787;BME280;45672;51.612;5.536;2024-01-15T09:13:15;100047.84;;;0.55;100.00
59787;BME280;45672;51.612;5.536;2024-01-15T09:15:41;100043.41;;;0.55;100.00
59787;BME280;45672;51.612;5.536;2024-01-15T09:18:07;100049.00;;;0.50;100.00
59787;BME280;45672;51.612;5.536;2024-01-15T09:20:33;100042.06;;;0.49;100.00
59787;BME280;45672;51.612;5.536;2024-01-15T09:22:58;100036.25;;;0.46;100.00
59787;BME280;45672;51.612;5.536;2024-01-15T09:25:23;100036.84;;;0.49;100.00
59787;BME280;45672;51.612;5.536;2024-01-15T09:27:49;100026.78;;;0.56;100.00
59787;BME280;45672;51.612;5.536;2024-01-15T09:30:14;100024.03;;;0.58;100.00
59787;BME280;45672;51.612;5.536;2024-01-15T09:32:40;100028.81;;;0.64;100.00
59787;BME280;45672;51.612;5.536;2024-01-15T09:35:06;100026.00;;;0.67;100.00
59787;BME280;45672;51.612;5.536;2024-01-15T09:37:31;100030.78;;;0.73;100.00
59787;BME280;45672;51.612;5.536;2024-01-15T09:39:57;100007.88;;;0.64;100.00
59787;BME280;45672;51.612;5.536;2024-01-15T09:42:24;100020.66;;;0.68;100.00
59787;BME280;45672;51.612;5.536;2024-01-15T09:44:50;100020.78;;;0.67;100.00
59787;BME280;45672;51.612;5.536;2024-01-15T09:47:16;100036.97;;;0.72;100.00
59787;BME280;45672;51.612;5.536;2024-01-15T09:49:42;100035.69;;;0.78;100.00
59787;BME280;45672;51.612;5.536;2024-01-15T09:52:07;100039.41;;;0.86;100.00
59787;BME280;45672;51.612;5.536;2024-01-15T09:54:33;100051.34;;;0.91;100.00
59787;BME280;45672;51.612;5.536;2024-01-15T09:57:00;100035.25;;;0.84;100.00
59787;BME280;45672;51.612;5.536;2024-01-15T09:59:26;100047.88;;;0.90;100.00
59787;BME280;45672;51.612;5.536;2024-01-15T10:01:53;100047.38;;;0.85;100.00
59787;BME280;45672;51.612;5.536;2024-01-15T10:04:19;100035.84;;;0.88;100.00
59787;BME280;45672;51.612;5.536;2024-01-15T10:06:45;100040.03;;;0.90;100.00
59787;BME280;45672;51.612;5.536;2024-01-15T10:09:14;100030.38;;;0.91;100.00
59787;BME280;45672;51.612;5.536;2024-01-15T10:11:41;100034.59;;;1.05;100.00
59787;BME280;45672;51.612;5.536;2024-01-15T10:14:07;100032.09;;;1.03;100.00
59787;BME280;45672;51.612;5.536;2024-01-15T10:16:32;100045.25;;;1.14;100.00
59787;BME280;45672;51.612;5.536;2024-01-15T10:18:58;100027.88;;;1.25;100.00
59787;BME280;45672;51.612;5.536;2024-01-15T10:21:24;100050.81;;;1.45;100.00
59787;BME280;45672;51.612;5.536;2024-01-15T10:23:51;100032.94;;;1.50;100.00
59787;BME280;45672;51.612;5.536;2024-01-15T10:26:17;100028.19;;;1.55;100.00
59787;BME280;45672;51.612;5.536;2024-01-15T10:28:42;100053.22;;;1.60;100.00
59787;BME280;45672;51.612;5.536;2024-01-15T10:31:07;100059.28;;;1.60;100.00
59787;BME280;45672;51.612;5.536;2024-01-15T10:33:33;100062.03;;;1.59;100.00
59787;BME280;45672;51.612;5.536;2024-01-15T10:36:00;100063.94;;;1.57;100.00
59787;BME280;45672;51.612;5.536;2024-01-15T10:38:26;100058.81;;;1.55;100.00
59787;BME280;45672;51.612;5.536;2024-01-15T10:40:52;100058.69;;;1.57;100.00
59787;BME280;45672;51.612;5.536;2024-01-15T10:43:18;100055.69;;;1.50;100.00
59787;BME280;45672;51.612;5.536;2024-01-15T10:45:45;100051.50;;;1.36;100.00
59787;BME280;45672;51.612;5.536;2024-01-15T10:48:10;100043.59;;;1.25;100.00
59787;BME280;45672;51.612;5.536;2024-01-15T10:50:36;100039.50;;;1.09;100.00
59787;BME280;45672;51.612;5.536;2024-01-15T10:53:01;100047.13;;;1.12;100.00
59787;BME280;45672;51.612;5.536;2024-01-15T10:55:28;100041.19;;;1.10;100.00
59787;BME280;45672;51.612;5.536;2024-01-15T10:57:54;100037.22;;;1.05;100.00
59787;BME280;45672;51.612;5.536;2024-01-15T11:00:21;100036.72;;;0.99;100.00
59787;BME280;45672;51.612;5.536;2024-01-15T11:02:47;100051.44;;;1.13;100.00
59787;BME280;45672;51.612;5.536;2024-01-15T11:05:12;100048.50;;;1.29;100.00
59787;BME280;45672;51.612;5.536;2024-01-15T11:07:39;100050.22;;;1.53;100.00
59787;BME280;45672;51.612;5.536;2024-01-15T11:10:05;100047.88;;;1.72;100.00
59787;BME280;45672;51.612;5.536;2024-01-15T11:12:31;100051.09;;;1.99;100.00
59787;BME280;45672;51.612;5.536;2024-01-15T11:15:03;100030.09;;;1.87;100.00
59787;BME280;45672;51.612;5.536;2024-01-15T11:18:00;100041.44;;;1.88;100.00
59787;BME280;45672;51.612;5.536;2024-01-15T11:20:26;100032.28;;;1.82;100.00
59787;BME280;45672;51.612;5.536;2024-01-15T11:22:51;100030.97;;;1.99;100.00
59787;BME280;45672;51.612;5.536;2024-01-15T11:25:19;100035.34;;;2.21;100.00
59787;BME280;45672;51.612;5.536;2024-01-15T11:27:51;100033.44;;;2.35;100.00
59787;BME280;45672;51.612;5.536;2024-01-15T11:30:17;100033.56;;;2.33;100.00
59787;BME280;45672;51.612;5.536;2024-01-15T11:32:43;100043.09;;;2.23;100.00
59787;BME280;45672;51.612;5.536;2024-01-15T11:35:11;100049.78;;;2.16;100.00
59787;BME280;45672;51.612;5.536;2024-01-15T11:40:22;100047.75;;;1.97;100.00
59787;BME280;45672;51.612;5.536;2024-01-15T11:42:48;100043.22;;;1.87;100.00
59787;BME280;45672;51.612;5.536;2024-01-15T11:45:21;100055.50;;;1.76;100.00
59787;BME280;45672;51.612;5.536;2024-01-15T11:48:08;100042.88;;;1.69;100.00
59787;BME280;45672;51.612;5.536;2024-01-15T11:50:35;100047.03;;;1.95;100.00
59787;BME280;45672;51.612;5.536;2024-01-15T11:53:56;100063.38;;;2.21;100.00
59787;BME280;45672;51.612;5.536;2024-01-15T11:55:58;100044.78;;;2.01;100.00
59787;BME280;45672;51.612;5.536;2024-01-15T11:58:24;100064.44;;;1.96;100.00
59787;BME280;45672;51.612;5.536;2024-01-15T12:00:51;100057.31;;;1.98;100.00
59787;BME280;45672;51.612;5.536;2024-01-15T12:03:20;100062.44;;;2.22;100.00
59787;BME280;45672;51.612;5.536;2024-01-15T12:05:45;100067.31;;;2.38;100.00
59787;BME280;45672;51.612;5.536;2024-01-15T12:08:11;100073.06;;;2.20;100.00
59787;BME280;45672;51.612;5.536;2024-01-15T12:10:41;100081.63;;;2.00;100.00
59787;BME280;45672;51.612;5.536;2024-01-15T12:13:13;100075.31;;;1.80;100.00
59787;BME280;45672;51.612;5.536;2024-01-15T12:15:40;100073.59;;;1.67;100.00
59787;BME280;45672;51.612;5.536;2024-01-15T12:18:07;100066.34;;;1.60;100.00
59787;BME280;45672;51.612;5.536;2024-01-15T12:20:33;100082.31;;;1.68;100.00
59787;BME280;45672;51.612;5.536;2024-01-15T12:22:59;100096.38;;;1.67;100.00
59787;BME280;45672;51.612;5.536;2024-01-15T12:25:25;100094.13;;;1.62;100.00
59787;BME280;45672;51.612;5.536;2024-01-15T12:27:52;100093.88;;;1.65;100.00
59787;BME280;45672;51.612;5.536;2024-01-15T12:30:18;100107.09;;;1.64;100.00
59787;BME280;45672;51.612;5.536;2024-01-15T12:32:44;100100.84;;;1.53;100.00
59787;BME280;45672;51.612;5.536;2024-01-15T12:35:13;100118.50;;;1.51;100.00
59787;BME280;45672;51.612;5.536;2024-01-15T12:37:39;100114.66;;;1.44;100.00
59787;BME280;45672;51.612;5.536;2024-01-15T12:40:06;100111.78;;;1.36;100.00
59787;BME280;45672;51.612;5.536;2024-01-15T12:42:43;100117.03;;;1.36;100.00
59787;BME280;45672;51.612;5.536;2024-01-15T12:45:09;100130.75;;;1.40;100.00